Time;durP1;ratioP1;P1;durP2;ratioP2;P2;SDS_P1;SDS_P2;PMS_P1;PMS_P2;Temp;Humidity;BMP_temperature;BMP_pressure;BME280_temperature;BME280_humidity;BME280_pressure;Samples;Min_cycle;Max_cycle;Signal;HPM_P1;HPM_P2
2024/02/13 00:00:58;;;;;;;6.55;3.08;;;;;;;9.02;100.00;99347.88;5111612;28;20123;-45
2024/02/13 00:03:26;;;;;;;4.95;3.13;;;;;;;9.08;100.00;99350.97;5111102;28;20086;-48
2024/02/13 00:05:58;;;;;;;7.03;3.60;;;;;;;8.92;100.00;99355.59;5111537;28;20553;-46
2024/02/13 00:08:27;;;;;;;5.43;3.33;;;;;;;8.96;100.00;99351.78;5111266;28;20051;-46
2024/02/13 00:11:13;;;;;;;6.18;3.10;;;;;;;8.98;100.00;99360.53;5111801;28;20047;-47
2024/02/13 00:13:43;;;;;;;5.95;2.97;;;;;;;8.75;100.00;99359.41;5111340;28;20539;-44
2024/02/13 00:16:11;;;;;;;5.85;3.63;;;;;;;8.74;100.00;99363.00;5111514;28;20043;-45
2024/02/13 00:18:39;;;;;;;5.72;3.40;;;;;;;8.77;100.00;99361.94;5110941;28;20549;-45
2024/02/13 00:21:09;;;;;;;6.00;3.90;;;;;;;8.69;100.00;99357.16;5111448;28;20488;-47
2024/02/13 00:23:40;;;;;;;6.20;3.45;;;;;;;8.69;100.00;99366.94;5111153;28;20488;-46
2024/02/13 00:26:09;;;;;;;6.93;3.55;;;;;;;8.73;100.00;99368.44;5111431;28;20040;-46
2024/02/13 00:28:37;;;;;;;8.00;3.70;;;;;;;8.75;100.00;99379.81;5110741;28;20560;-46
2024/02/13 00:31:07;;;;;;;6.65;3.78;;;;;;;8.80;100.00;99375.06;5110981;28;20159;-45
2024/02/13 00:33:36;;;;;;;6.05;3.53;;;;;;;8.72;100.00;99382.69;5110768;28;20485;-46
2024/02/13 00:36:07;;;;;;;5.40;3.38;;;;;;;8.60;100.00;99377.22;5111188;28;20080;-48
2024/02/13 00:38:39;;;;;;;6.10;3.22;;;;;;;8.70;100.00;99388.13;5111060;28;20085;-45
2024/02/13 00:41:08;;;;;;;6.07;3.70;;;;;;;8.74;100.00;99383.44;5111322;28;20048;-46
2024/02/13 00:43:36;;;;;;;6.90;3.70;;;;;;;8.69;100.00;99374.94;5111051;28;20172;-48
2024/02/13 00:46:05;;;;;;;5.53;3.75;;;;;;;8.66;100.00;99391.91;5110974;28;20377;-49
2024/02/13 00:48:33;;;;;;;5.75;3.50;;;;;;;8.67;100.00;99400.72;5111036;28;20442;-47
2024/02/13 00:51:03;;;;;;;6.50;3.92;;;;;;;8.67;100.00;99395.41;5110972;28;20389;-48
2024/02/13 00:53:31;;;;;;;6.35;3.95;;;;;;;8.63;100.00;99396.59;5114560;28;20052;-48
2024/02/13 00:56:01;;;;;;;6.47;3.60;;;;;;;8.63;100.00;99397.44;5114624;28;20525;-49
2024/02/13 00:58:30;;;;;;;5.85;3.60;;;;;;;8.52;100.00;99398.13;5114660;28;20496;-49
2024/02/13 01:01:00;;;;;;;6.97;4.10;;;;;;;8.44;100.00;99392.47;5114696;28;20066;-51
2024/02/13 01:03:31;;;;;;;6.70;3.50;;;;;;;8.57;100.00;99403.16;5114275;28;20571;-45
2024/02/13 01:05:59;;;;;;;5.95;3.80;;;;;;;8.61;100.00;99407.31;5114636;28;20051;-48
2024/02/13 01:08:28;;;;;;;6.88;3.65;;;;;;;8.56;100.00;99406.75;5114617;28;20058;-46
2024/02/13 01:10:56;;;;;;;6.35;3.83;;;;;;;8.63;100.00;99412.53;5114313;28;20068;-47
2024/02/13 01:13:26;;;;;;;6.93;3.92;;;;;;;8.52;100.00;99414.09;5114453;28;20051;-49
2024/02/13 01:15:54;;;;;;;6.40;3.88;;;;;;;8.49;100.00;99411.63;5114324;28;20467;-51
2024/02/13 01:18:24;;;;;;;5.85;4.05;;;;;;;8.46;100.00;99417.13;5114791;28;20048;-49
2024/02/13 01:20:52;;;;;;;6.25;3.75;;;;;;;8.47;100.00;99410.00;5114255;28;20055;-47
2024/02/13 01:23:21;;;;;;;7.18;4.00;;;;;;;8.61;100.00;99407.31;5114630;27;20043;-47
2024/02/13 01:25:50;;;;;;;7.70;4.20;;;;;;;8.62;100.00;99424.13;5114444;28;20129;-46
2024/02/13 01:28:19;;;;;;;7.20;4.03;;;;;;;8.61;100.00;99423.28;5114246;27;20070;-49
2024/02/13 01:30:49;;;;;;;6.97;3.95;;;;;;;8.67;100.00;99424.66;5114169;28;20203;-47
2024/02/13 01:33:17;;;;;;;7.00;4.07;;;;;;;8.54;100.00;99425.47;5113984;28;20079;-45
2024/02/13 01:35:46;;;;;;;6.47;4.00;;;;;;;8.48;100.00;99425.84;5114138;28;20070;-48
2024/02/13 01:38:14;;;;;;;7.28;4.20;;;;;;;8.58;100.00;99426.97;5113872;28;20128;-47
2024/02/13 01:40:42;;;;;;;7.18;4.13;;;;;;;8.69;100.00;99425.44;5114303;28;20039;-48
2024/02/13 01:43:11;;;;;;;8.00;4.32;;;;;;;8.67;100.00;99430.81;5113839;28;20461;-48
2024/02/13 01:45:39;;;;;;;6.25;4.00;;;;;;;8.79;100.00;99434.50;5113987;28;20044;-45
2024/02/13 01:48:10;;;;;;;7.20;4.28;;;;;;;8.77;100.00;99442.56;5113874;28;20040;-48
2024/02/13 01:50:39;;;;;;;8.68;4.25;;;;;;;8.73;100.00;99442.88;5113643;28;20051;-47
2024/02/13 01:53:08;;;;;;;6.95;3.90;;;;;;;8.73;100.00;99453.50;5113639;28;20051;-46
2024/02/13 01:55:37;;;;;;;7.43;4.07;;;;;;;8.69;100.00;99452.03;5113471;27;20056;-48
2024/02/13 01:58:07;;;;;;;6.30;3.75;;;;;;;8.66;100.00;99444.22;5113311;28;20144;-47
2024/02/13 02:00:36;;;;;;;6.47;4.05;;;;;;;8.73;100.00;99450.84;5113458;28;20443;-48
2024/02/13 02:03:06;;;;;;;7.70;4.35;;;;;;;8.65;100.00;99451.34;5113071;28;20055;-46
2024/02/13 02:05:36;;;;;;;7.20;4.13;;;;;;;8.55;100.00;99447.59;5113342;28;20509;-46
2024/02/13 02:08:05;;;;;;;7.88;3.95;;;;;;;8.59;100.00;99455.28;5113596;28;20496;-47
2024/02/13 02:10:33;;;;;;;7.28;4.78;;;;;;;8.44;100.00;99453.59;5113495;28;20055;-46
2024/02/13 02:13:02;;;;;;;7.13;4.38;;;;;;;8.56;100.00;99452.78;5113173;28;20055;-47
2024/02/13 02:15:30;;;;;;;6.50;4.25;;;;;;;8.53;100.00;99460.97;5113273;28;20054;-47
2024/02/13 02:17:59;;;;;;;6.78;3.95;;;;;;;8.47;100.00;99452.53;5113241;28;20058;-46
2024/02/13 02:20:29;;;;;;;6.05;4.15;;;;;;;8.53;100.00;99455.66;5113564;28;20135;-49
2024/02/13 02:22:58;;;;;;;8.00;3.97;;;;;;;8.60;100.00;99456.13;5112966;28;20086;-50
2024/02/13 02:25:28;;;;;;;7.18;4.18;;;;;;;8.54;100.00;99459.16;5113143;28;20054;-46
2024/02/13 02:27:56;;;;;;;5.45;4.15;;;;;;;8.60;100.00;99462.28;5113059;28;20088;-46
2024/02/13 02:30:25;;;;;;;6.88;4.47;;;;;;;8.63;100.00;99466.56;5111912;28;20126;-48
2024/02/13 02:32:53;;;;;;;7.10;4.13;;;;;;;8.44;100.00;99472.19;5113327;28;20464;-48
2024/02/13 02:35:22;;;;;;;7.55;4.80;;;;;;;8.37;100.00;99462.03;5113788;28;20101;-48
2024/02/13 02:37:51;;;;;;;8.98;4.50;;;;;;;8.25;100.00;99468.97;5113271;28;20118;-47
2024/02/13 02:40:19;;;;;;;8.20;4.47;;;;;;;8.28;100.00;99464.28;5113075;28;20043;-47
2024/02/13 02:42:52;;;;;;;7.32;4.63;;;;;;;8.34;100.00;99468.38;5113641;28;20048;-48
2024/02/13 02:45:20;;;;;;;8.67;4.83;;;;;;;8.35;100.00;99464.81;5112724;28;20526;-51
2024/02/13 02:47:49;;;;;;;7.38;4.38;;;;;;;8.36;100.00;99471.81;5112735;28;20052;-46
2024/02/13 02:50:18;;;;;;;8.73;4.82;;;;;;;8.28;100.00;99469.59;5112907;28;20086;-46
2024/02/13 02:52:46;;;;;;;6.93;4.55;;;;;;;8.29;100.00;99475.78;5112768;28;20097;-48
2024/02/13 02:55:18;;;;;;;12.68;5.15;;;;;;;8.27;100.00;99470.56;5112296;28;20051;-48
2024/02/13 02:57:46;;;;;;;7.35;4.38;;;;;;;8.37;100.00;99476.19;5111981;28;20114;-50
2024/02/13 03:00:20;;;;;;;6.53;4.53;;;;;;;8.35;100.00;99486.06;5112766;28;20085;-47
2024/02/13 03:02:49;;;;;;;7.38;4.80;;;;;;;8.22;100.00;99493.06;5111980;28;20511;-48
2024/02/13 03:05:17;;;;;;;8.02;4.75;;;;;;;8.34;100.00;99492.31;5111887;28;20130;-47
2024/02/13 03:07:46;;;;;;;6.82;4.57;;;;;;;8.30;100.00;99493.44;5112088;28;20050;-47
2024/02/13 03:10:15;;;;;;;7.05;4.47;;;;;;;8.45;100.00;99496.97;5111866;28;20078;-47
2024/02/13 03:12:44;;;;;;;6.00;4.40;;;;;;;8.49;100.00;99501.13;5112007;28;20048;-48
2024/02/13 03:15:12;;;;;;;7.25;4.53;;;;;;;8.29;100.00;99507.66;5111929;28;20071;-48
2024/02/13 03:17:42;;;;;;;7.85;4.75;;;;;;;8.19;100.00;99507.38;5111960;28;20121;-48
2024/02/13 03:20:12;;;;;;;7.10;4.28;;;;;;;8.26;100.00;99516.69;5111997;28;20415;-46
2024/02/13 03:22:42;;;;;;;7.80;4.72;;;;;;;8.31;100.00;99513.75;5111739;28;20100;-50
2024/02/13 03:25:12;;;;;;;6.57;4.57;;;;;;;8.20;100.00;99513.53;5111746;28;20135;-49
2024/02/13 03:27:41;;;;;;;7.47;4.68;;;;;;;8.12;100.00;99521.16;5111609;28;20044;-45
2024/02/13 03:30:11;;;;;;;7.80;4.82;;;;;;;8.28;100.00;99519.25;5111797;28;20051;-48
2024/02/13 03:32:39;;;;;;;6.15;4.05;;;;;;;8.27;100.00;99521.03;5111524;28;20100;-48
2024/02/13 03:35:10;;;;;;;7.07;4.47;;;;;;;8.23;100.00;99526.66;5111742;28;20090;-50
2024/02/13 03:37:38;;;;;;;6.85;4.40;;;;;;;8.35;100.00;99541.88;5111869;28;20112;-47
2024/02/13 03:40:08;;;;;;;7.45;4.50;;;;;;;7.98;100.00;99535.28;5111788;28;20044;-49
2024/02/13 03:42:37;;;;;;;7.93;4.50;;;;;;;8.03;100.00;99534.06;5111717;28;20048;-48
2024/02/13 03:45:06;;;;;;;8.43;5.07;;;;;;;7.95;100.00;99549.59;5111843;28;20043;-47
2024/02/13 03:47:35;;;;;;;7.45;4.70;;;;;;;7.96;100.00;99546.00;5111606;28;20549;-50
2024/02/13 03:50:04;;;;;;;7.97;4.78;;;;;;;7.97;100.00;99552.16;5111559;28;20069;-49
2024/02/13 03:52:40;;;;;;;8.52;4.82;;;;;;;7.96;100.00;99545.13;5111643;28;20090;-48
2024/02/13 03:55:09;;;;;;;7.20;4.63;;;;;;;7.86;100.00;99558.13;5110494;28;20083;-48
2024/02/13 03:57:38;;;;;;;8.05;4.90;;;;;;;7.93;100.00;99564.78;5111762;28;20039;-46
2024/02/13 04:00:10;;;;;;;8.57;5.15;;;;;;;8.12;100.00;99550.38;5111902;28;20047;-48
2024/02/13 04:02:39;;;;;;;7.72;4.95;;;;;;;8.11;100.00;99564.63;5111889;28;20052;-47
2024/02/13 04:05:09;;;;;;;9.80;5.00;;;;;;;8.04;100.00;99564.97;5112674;28;20039;-49
2024/02/13 04:07:37;;;;;;;7.90;4.60;;;;;;;7.96;100.00;99567.22;5112515;28;20056;-49
2024/02/13 04:10:08;;;;;;;7.55;4.95;;;;;;;7.94;100.00;99574.44;5111659;28;20096;-53
2024/02/13 04:12:38;;;;;;;7.07;4.45;;;;;;;7.91;100.00;99573.75;5111327;28;20046;-48
2024/02/13 04:15:07;;;;;;;7.15;4.60;;;;;;;7.96;100.00;99575.19;5111361;28;20048;-48
2024/02/13 04:17:36;;;;;;;7.68;4.63;;;;;;;7.90;100.00;99578.22;5111096;28;20468;-47
2024/02/13 04:20:08;;;;;;;8.18;4.85;;;;;;;8.01;100.00;99586.41;5111476;28;20075;-47
2024/02/13 04:22:37;;;;;;;7.15;4.50;;;;;;;7.97;100.00;99584.88;5111364;28;20054;-47
2024/02/13 04:25:08;;;;;;;7.10;4.93;;;;;;;7.86;100.00;99592.63;5111238;28;20389;-47
2024/02/13 04:27:36;;;;;;;7.95;4.97;;;;;;;7.83;100.00;99592.81;5113004;28;20051;-49
2024/02/13 04:30:08;;;;;;;7.53;4.82;;;;;;;7.92;100.00;99596.75;5114915;28;20053;-48
2024/02/13 04:32:37;;;;;;;8.38;5.47;;;;;;;7.97;100.00;99592.84;5114872;28;20047;-47
2024/02/13 04:35:07;;;;;;;7.70;5.25;;;;;;;7.94;100.00;99595.69;5115065;28;20155;-50
2024/02/13 04:37:35;;;;;;;9.70;5.40;;;;;;;7.99;100.00;99598.06;5114795;28;20059;-49
2024/02/13 04:40:06;;;;;;;9.02;5.43;;;;;;;7.98;100.00;99596.34;5115752;27;20047;-48
2024/02/13 04:42:37;;;;;;;8.27;5.10;;;;;;;7.93;100.00;99601.94;5115323;28;20204;-49
2024/02/13 04:45:06;;;;;;;9.00;5.45;;;;;;;7.95;100.00;99601.84;5115413;28;20097;-46
2024/02/13 04:47:35;;;;;;;7.82;5.22;;;;;;;7.98;100.00;99601.66;5115070;28;20044;-47
2024/02/13 04:50:06;;;;;;;9.95;5.40;;;;;;;7.76;100.00;99596.78;5115131;28;20060;-47
2024/02/13 04:52:35;;;;;;;8.82;5.55;;;;;;;7.81;100.00;99604.47;5114583;28;20054;-46
2024/02/13 04:55:04;;;;;;;7.75;5.30;;;;;;;7.58;100.00;99609.31;5115362;28;20083;-44
2024/02/13 04:57:33;;;;;;;7.82;5.43;;;;;;;7.64;100.00;99603.66;5114946;27;20050;-47
2024/02/13 05:00:13;;;;;;;7.93;5.00;;;;;;;7.61;100.00;99610.94;5114957;28;20051;-47
2024/02/13 05:02:46;;;;;;;12.27;6.05;;;;;;;7.66;100.00;99614.19;5114567;28;20058;-47
2024/02/13 05:08:01;;;;;;;8.43;5.63;;;;;;;7.56;100.00;99626.28;5114617;28;20134;-46
2024/02/13 05:10:29;;;;;;;8.15;5.60;;;;;;;7.50;100.00;99631.94;5114612;28;20053;-45
2024/02/13 05:12:57;;;;;;;8.63;5.80;;;;;;;7.58;100.00;99641.16;5114533;28;20432;-48
2024/02/13 05:15:27;;;;;;;9.60;6.03;;;;;;;7.60;100.00;99646.38;5114511;28;20392;-46
2024/02/13 05:17:56;;;;;;;9.98;6.15;;;;;;;7.55;100.00;99651.13;5114374;28;20120;-46
2024/02/13 05:20:25;;;;;;;9.23;6.22;;;;;;;7.46;100.00;99645.38;5114591;28;20048;-45
2024/02/13 05:22:54;;;;;;;9.18;5.80;;;;;;;7.49;100.00;99656.75;5114266;28;20097;-47
2024/02/13 05:25:22;;;;;;;10.43;6.22;;;;;;;7.59;100.00;99660.59;5114438;28;20055;-49
2024/02/13 05:27:50;;;;;;;9.27;6.50;;;;;;;7.47;100.00;99654.19;5114289;28;20047;-45
2024/02/13 05:30:20;;;;;;;9.13;5.95;;;;;;;7.62;100.00;99663.94;5114315;28;20055;-46
2024/02/13 05:32:51;;;;;;;10.15;6.55;;;;;;;7.45;100.00;99656.94;5114524;28;20039;-46
2024/02/13 05:35:20;;;;;;;9.70;6.60;;;;;;;7.37;100.00;99658.31;5113041;28;20130;-45
2024/02/13 05:37:51;;;;;;;9.63;6.85;;;;;;;7.31;100.00;99674.56;5113118;27;20552;-49
2024/02/13 05:40:20;;;;;;;10.73;6.50;;;;;;;7.17;100.00;99667.41;5112980;28;20044;-47
2024/02/13 05:42:48;;;;;;;10.55;6.88;;;;;;;7.33;100.00;99668.22;5113536;28;20043;-48
2024/02/13 05:45:16;;;;;;;10.38;6.90;;;;;;;7.24;100.00;99683.81;5113583;28;20059;-47
2024/02/13 05:47:45;;;;;;;11.93;6.80;;;;;;;7.10;100.00;99687.22;5113410;28;20082;-49
2024/02/13 05:50:17;;;;;;;11.55;6.90;;;;;;;7.08;100.00;99695.28;5113472;28;20416;-47
2024/02/13 05:52:47;;;;;;;9.30;6.78;;;;;;;7.15;100.00;99703.75;5113163;28;20071;-49
2024/02/13 05:55:16;;;;;;;9.95;6.85;;;;;;;7.21;100.00;99710.50;5113186;28;20039;-48
2024/02/13 05:57:44;;;;;;;10.52;6.78;;;;;;;7.21;100.00;99710.50;5113276;28;20512;-46
2024/02/13 06:00:14;;;;;;;10.90;6.70;;;;;;;7.24;100.00;99719.19;5112905;27;20154;-45
2024/02/13 06:02:43;;;;;;;10.35;7.00;;;;;;;7.19;100.00;99729.16;5112742;28;20048;-46
2024/02/13 06:05:14;;;;;;;11.82;7.30;;;;;;;7.16;100.00;99730.19;5113042;28;20059;-47
2024/02/13 06:07:44;;;;;;;11.23;7.18;;;;;;;7.04;100.00;99744.09;5113023;28;20054;-46
2024/02/13 06:10:13;;;;;;;11.77;7.28;;;;;;;6.99;100.00;99732.03;5112671;28;20081;-46
2024/02/13 06:12:42;;;;;;;11.63;7.78;;;;;;;7.11;100.00;99741.97;5112708;28;20044;-47
2024/02/13 06:15:10;;;;;;;12.45;7.47;;;;;;;7.13;100.00;99750.72;5112529;28;20046;-46
2024/02/13 06:17:39;;;;;;;11.77;6.72;;;;;;;7.08;100.00;99748.31;5112395;28;20116;-46
2024/02/13 06:20:12;;;;;;;12.57;7.20;;;;;;;7.24;100.00;99753.66;5112226;28;20079;-46
2024/02/13 06:22:41;;;;;;;10.35;7.05;;;;;;;7.29;100.00;99746.28;5112700;28;20130;-46
2024/02/13 06:25:12;;;;;;;10.25;6.78;;;;;;;7.42;100.00;99757.94;5112862;28;20097;-50
2024/02/13 06:27:40;;;;;;;10.32;7.50;;;;;;;7.38;100.00;99756.41;5112856;28;20105;-47
2024/02/13 06:30:10;;;;;;;10.98;7.10;;;;;;;7.33;100.00;99768.19;5112505;28;20050;-45
2024/02/13 06:32:38;;;;;;;11.90;7.32;;;;;;;7.32;100.00;99759.38;5112248;28;20055;-46
2024/02/13 06:35:07;;;;;;;14.00;8.45;;;;;;;7.37;100.00;99781.22;5111977;28;20048;-46
2024/02/13 06:37:39;;;;;;;14.52;8.88;;;;;;;7.54;100.00;99787.41;5112296;28;20044;-45
2024/02/13 06:40:09;;;;;;;14.27;8.77;;;;;;;7.57;100.00;99800.50;5112185;28;20134;-47
2024/02/13 06:42:38;;;;;;;12.82;7.88;;;;;;;7.73;100.00;99804.03;5094516;28;20044;-48
2024/02/13 06:45:09;;;;;;;13.10;8.88;;;;;;;7.62;100.00;99809.06;5091648;28;20080;-48
2024/02/13 06:47:38;;;;;;;12.48;7.57;;;;;;;7.61;100.00;99816.16;5091735;28;20460;-46
2024/02/13 06:50:11;;;;;;;12.00;7.75;;;;;;;7.47;100.00;99808.97;5091404;28;20051;-45
2024/02/13 06:52:41;;;;;;;17.35;7.70;;;;;;;7.63;100.00;99803.69;5091712;28;20097;-46
2024/02/13 06:55:10;;;;;;;12.10;7.75;;;;;;;7.74;100.00;99811.06;5091734;28;20051;-48
2024/02/13 06:57:40;;;;;;;10.25;6.30;;;;;;;8.02;100.00;99816.53;5091484;28;20048;-48
2024/02/13 07:00:10;;;;;;;11.32;7.20;;;;;;;8.13;100.00;99812.41;5091656;28;20048;-47
2024/02/13 07:02:39;;;;;;;9.05;6.70;;;;;;;8.12;100.00;99821.34;5092530;28;20048;-48
2024/02/13 07:05:09;;;;;;;10.07;6.38;;;;;;;8.11;100.00;99809.00;5091859;28;20063;-47
2024/02/13 07:07:38;;;;;;;10.50;6.68;;;;;;;8.10;100.00;99813.44;5091514;28;20048;-46
2024/02/13 07:10:15;;;;;;;10.75;6.53;;;;;;;8.15;100.00;99815.84;5091540;28;20067;-47
2024/02/13 07:12:46;;;;;;;10.73;6.82;;;;;;;8.08;100.00;99814.47;5091322;28;20484;-43
2024/02/13 07:15:15;;;;;;;9.32;6.57;;;;;;;8.22;100.00;99811.91;5091749;28;20067;-45
2024/02/13 07:17:44;;;;;;;10.70;6.68;;;;;;;8.02;100.00;99821.00;5091596;28;20100;-46
2024/02/13 07:20:27;;;;;;;11.07;6.53;;;;;;;8.09;100.00;99824.16;5091324;28;20471;-45
2024/02/13 07:22:57;;;;;;;11.65;6.47;;;;;;;8.18;100.00;99831.59;5091522;28;20606;-45
2024/02/13 07:25:25;;;;;;;12.32;6.85;;;;;;;8.25;100.00;99833.81;5091028;28;20051;-44
2024/02/13 07:27:56;;;;;;;10.43;6.90;;;;;;;8.29;100.00;99826.50;5091396;28;20450;-48
2024/02/13 07:30:25;;;;;;;13.63;6.97;;;;;;;8.26;100.00;99834.66;5091031;28;20048;-46
2024/02/13 07:32:55;;;;;;;12.10;7.20;;;;;;;8.33;100.00;99836.03;5091139;28;20101;-45
2024/02/13 07:35:24;;;;;;;9.20;6.68;;;;;;;8.26;100.00;99848.81;5091135;28;20044;-44
2024/02/13 07:37:53;;;;;;;10.52;6.55;;;;;;;8.32;100.00;99840.50;5090901;28;20110;-46
2024/02/13 07:40:21;;;;;;;10.10;6.75;;;;;;;8.44;100.00;99838.97;5090998;28;20048;-44
2024/02/13 07:42:50;;;;;;;14.55;7.40;;;;;;;8.27;100.00;99841.69;5091305;28;20048;-45
2024/02/13 07:45:21;;;;;;;11.50;7.15;;;;;;;8.31;100.00;99843.25;5090919;28;20051;-45
2024/02/13 07:47:51;;;;;;;10.18;7.13;;;;;;;8.39;100.00;99846.34;5091292;28;20385;-46
2024/02/13 07:50:21;;;;;;;10.40;6.88;;;;;;;8.48;100.00;99850.25;5090966;28;20054;-47
2024/02/13 07:52:49;;;;;;;11.18;7.60;;;;;;;8.62;100.00;99846.81;5090825;28;20048;-45
2024/02/13 07:55:18;;;;;;;10.55;7.35;;;;;;;8.71;100.00;99857.78;5091051;28;20052;-47
2024/02/13 07:57:50;;;;;;;9.70;6.53;;;;;;;8.66;100.00;99864.28;5090806;28;20044;-46
2024/02/13 08:00:23;;;;;;;11.95;6.95;;;;;;;8.56;100.00;99859.50;5090895;28;20146;-46
2024/02/13 08:02:53;;;;;;;12.60;7.63;;;;;;;8.89;100.00;99871.78;5093335;28;20063;-47
2024/02/13 08:05:21;;;;;;;11.20;7.03;;;;;;;8.80;100.00;99872.34;5095287;28;20048;-47
2024/02/13 08:07:50;;;;;;;11.85;7.05;;;;;;;9.02;100.00;99878.09;5095017;28;20044;-45
2024/02/13 08:10:19;;;;;;;12.05;7.20;;;;;;;9.07;100.00;99875.13;5094785;28;20448;-48
2024/02/13 08:12:47;;;;;;;13.48;6.75;;;;;;;9.01;100.00;99881.69;5094955;28;20044;-44
2024/02/13 08:15:16;;;;;;;12.30;7.10;;;;;;;8.93;100.00;99886.63;5095276;28;20055;-45
2024/02/13 08:17:45;;;;;;;10.65;7.20;;;;;;;8.89;100.00;99880.63;5094787;28;20056;-50
2024/02/13 08:20:14;;;;;;;11.70;7.00;;;;;;;9.32;100.00;99890.50;5095063;28;20079;-46
2024/02/13 08:22:43;;;;;;;12.90;7.03;;;;;;;9.35;100.00;99884.97;5094904;28;20050;-47
2024/02/13 08:25:11;;;;;;;11.73;7.30;;;;;;;9.13;100.00;99886.28;5094563;28;20040;-46
2024/02/13 08:27:40;;;;;;;11.30;7.00;;;;;;;9.45;100.00;99876.34;5094349;28;20052;-45
2024/02/13 08:30:10;;;;;;;8.63;6.10;;;;;;;9.42;100.00;99887.19;5094090;28;20150;-47
2024/02/13 08:32:41;;;;;;;10.00;6.50;;;;;;;9.29;100.00;99893.34;5094750;28;20044;-45
2024/02/13 08:35:12;;;;;;;10.52;6.15;;;;;;;9.42;100.00;99891.66;5095036;28;20192;-46
2024/02/13 08:37:40;;;;;;;9.65;6.30;;;;;;;9.40;100.00;99893.56;5094542;28;20044;-47
2024/02/13 08:40:12;;;;;;;10.63;6.75;;;;;;;9.54;100.00;99898.88;5094005;28;20610;-44
2024/02/13 08:42:41;;;;;;;10.50;6.80;;;;;;;9.61;100.00;99908.19;5094077;28;20094;-44
2024/02/13 08:45:10;;;;;;;309.90;42.13;;;;;;;9.82;100.00;99907.81;5094448;28;20093;-45
2024/02/13 08:47:42;;;;;;;84.32;16.20;;;;;;;9.79;100.00;99902.69;5094458;28;20272;-46
2024/02/13 08:50:12;;;;;;;34.22;8.38;;;;;;;9.92;100.00;99906.28;5094266;28;20488;-47
2024/02/13 08:52:41;;;;;;;11.27;6.40;;;;;;;9.67;100.00;99907.84;5094412;28;20055;-45
2024/02/13 08:55:10;;;;;;;11.60;6.20;;;;;;;9.97;100.00;99914.88;5094197;28;20101;-46
2024/02/13 08:57:38;;;;;;;12.50;6.60;;;;;;;9.91;100.00;99910.75;5094213;28;20062;-47
2024/02/13 09:00:11;;;;;;;11.00;6.05;;;;;;;10.14;100.00;99916.47;5094053;28;20113;-45
2024/02/13 09:02:40;;;;;;;10.30;6.30;;;;;;;10.25;100.00;99912.19;5092513;28;20171;-45
2024/02/13 09:05:09;;;;;;;11.57;6.05;;;;;;;10.28;100.00;99914.66;5093928;28;20080;-43
2024/02/13 09:07:38;;;;;;;10.82;6.22;;;;;;;10.26;100.00;99911.25;5093600;28;20044;-45
2024/02/13 09:10:11;;;;;;;13.07;6.97;;;;;;;10.30;100.00;99917.22;5093258;28;20048;-46
2024/02/13 09:12:40;;;;;;;;;;;;;;;10.54;100.00;99920.13;5094112;28;20044;-43
2024/02/13 09:15:11;;;;;;;9.40;5.90;;;;;;;10.67;100.00;99925.50;5094097;28;19924;-46
2024/02/13 09:17:41;;;;;;;9.02;5.95;;;;;;;10.71;100.00;99927.88;5093933;28;20138;-47
2024/02/13 09:20:14;;;;;;;11.75;6.68;;;;;;;10.70;100.00;99939.47;5093835;28;20052;-48
2024/02/13 09:22:45;;;;;;;10.55;6.20;;;;;;;10.79;100.00;99935.34;5094515;28;20397;-45
2024/02/13 09:25:14;;;;;;;9.68;6.07;;;;;;;10.68;100.00;99940.53;5093370;28;20422;-45
2024/02/13 09:27:43;;;;;;;10.90;6.93;;;;;;;10.74;100.00;99943.69;5093414;28;20052;-46
2024/02/13 09:30:12;;;;;;;13.07;6.75;;;;;;;11.04;100.00;99951.47;5093077;28;20482;-50
2024/02/13 09:32:41;;;;;;;9.07;5.78;;;;;;;10.95;100.00;99951.22;5093135;28;20047;-46
2024/02/13 09:35:10;;;;;;;13.65;6.18;;;;;;;10.95;100.00;99961.88;5093106;28;20055;-47
2024/02/13 09:37:40;;;;;;;8.32;5.78;;;;;;;10.82;100.00;99953.84;5093241;28;20048;-45
2024/02/13 09:40:14;;;;;;;;;;;;;;;10.91;100.00;99955.06;5093638;28;20066;-44
2024/02/13 09:42:43;;;;;;;15.98;5.95;;;;;;;10.93;100.00;99956.66;5092844;28;20023;-47
2024/02/13 09:45:13;;;;;;;11.52;6.20;;;;;;;10.84;100.00;99949.25;5092910;28;20044;-45
2024/02/13 09:47:45;;;;;;;11.80;5.72;;;;;;;10.87;100.00;99968.59;5110823;28;20051;-46
2024/02/13 09:50:15;;;;;;;11.32;5.75;;;;;;;11.07;100.00;99964.59;5112368;28;20043;-44
2024/02/13 09:52:51;;;;;;;10.15;5.80;;;;;;;11.14;100.00;99963.22;5107126;28;20044;-44
2024/02/13 09:55:23;;;;;;;12.55;5.88;;;;;;;11.11;100.00;99966.13;5099106;28;20047;-44
2024/02/13 09:57:52;;;;;;;11.75;6.28;;;;;;;10.91;100.00;99971.91;5100460;28;20123;-46
2024/02/13 10:00:21;;;;;;;16.05;7.10;;;;;;;10.90;100.00;99959.50;5103757;28;20056;-45
2024/02/13 10:02:50;;;;;;;12.60;6.13;;;;;;;11.16;100.00;99971.97;5091601;28;20170;-47
2024/02/13 10:05:20;;;;;;;11.10;6.43;;;;;;;11.16;100.00;99965.78;5094523;28;20413;-45
2024/02/13 10:07:49;;;;;;;13.32;7.20;;;;;;;11.40;100.00;99974.84;5095269;28;20051;-46
2024/02/13 10:10:18;;;;;;;19.00;6.28;;;;;;;11.33;100.00;99954.84;5105854;28;20464;-46
2024/02/13 10:12:57;;;;;;;12.65;6.40;;;;;;;11.27;100.00;99962.41;5091156;28;20044;-44
2024/02/13 10:15:27;;;;;;;20.63;6.40;;;;;;;11.35;100.00;99955.56;5097807;28;20127;-47
2024/02/13 10:17:57;;;;;;;31.88;7.88;;;;;;;11.43;100.00;99966.59;5094139;28;20062;-45
2024/02/13 10:20:27;;;;;;;18.85;6.25;;;;;;;11.63;100.00;99956.38;5098223;28;20097;-46
2024/02/13 10:22:59;;;;;;;11.73;5.80;;;;;;;11.53;100.00;99965.97;5108125;28;20521;-46
2024/02/13 10:25:31;;;;;;;15.93;6.55;;;;;;;11.72;100.00;99961.94;5109504;28;20076;-45
2024/02/13 10:28:02;;;;;;;9.90;5.10;;;;;;;11.77;100.00;99953.56;5111522;28;20123;-45
2024/02/13 10:30:31;;;;;;;8.75;4.75;;;;;;;11.83;100.00;99961.19;5103047;28;20070;-45
2024/02/13 10:33:01;;;;;;;7.10;4.50;;;;;;;11.73;100.00;99968.13;5091047;28;20130;-45
2024/02/13 10:35:30;;;;;;;8.38;3.72;;;;;;;11.72;100.00;99955.72;5099543;28;20054;-45
2024/02/13 10:37:59;;;;;;;4.65;3.28;;;;;;;11.58;100.00;99963.81;5102389;28;20048;-44
2024/02/13 10:40:29;;;;;;;7.18;3.58;;;;;;;11.90;100.00;99962.50;5108663;28;20089;-43
2024/02/13 10:42:59;;;;;;;6.47;3.38;;;;;;;11.82;100.00;99954.16;5108945;28;20052;-45
2024/02/13 10:45:30;;;;;;;5.78;3.25;;;;;;;11.70;100.00;99965.66;5104960;28;20062;-47
2024/02/13 10:48:07;;;;;;;5.40;2.70;;;;;;;11.90;100.00;99969.66;5110652;28;20048;-47
2024/02/13 10:50:37;;;;;;;5.35;3.00;;;;;;;11.58;100.00;99977.19;5110013;28;20429;-45
2024/02/13 10:53:06;;;;;;;5.22;3.15;;;;;;;11.55;100.00;99962.22;5111417;28;20048;-46
2024/02/13 10:55:36;;;;;;;4.90;3.10;;;;;;;11.53;100.00;99973.97;5102615;28;20043;-45
2024/02/13 10:58:11;;;;;;;4.70;2.83;;;;;;;11.82;100.00;99970.19;5103561;28;20545;-45
2024/02/13 11:00:53;;;;;;;;;;;;;;;11.78;100.00;99959.81;5102010;28;20079;-45
2024/02/13 11:03:23;;;;;;;5.90;2.85;;;;;;;11.93;100.00;99975.63;5110819;28;20261;-45
2024/02/13 11:05:52;;;;;;;5.32;2.85;;;;;;;11.97;100.00;99990.50;5110613;28;20058;-46
2024/02/13 11:08:21;;;;;;;4.60;2.72;;;;;;;11.72;100.00;99969.09;5110970;28;20139;-47
2024/02/13 11:10:49;;;;;;;6.93;2.83;;;;;;;11.77;100.00;99977.63;5108933;28;20075;-44
2024/02/13 11:13:18;;;;;;;6.28;3.40;;;;;;;11.90;100.00;99972.34;5110545;28;20051;-46
2024/02/13 11:15:49;;;;;;;3.72;2.10;;;;;;;11.99;100.00;99977.03;5110976;28;20464;-45
2024/02/13 11:18:18;;;;;;;8.40;3.10;;;;;;;12.03;100.00;99983.84;5110636;28;20048;-46
2024/02/13 11:20:53;;;;;;;5.70;2.75;;;;;;;11.86;100.00;99985.03;5109217;28;20040;-48
2024/02/13 11:23:29;;;;;;;5.13;3.10;;;;;;;12.07;100.00;99973.81;5110612;28;20055;-46
2024/02/13 11:25:58;;;;;;;7.22;3.20;;;;;;;11.88;100.00;99961.75;5105266;28;20047;-48
2024/02/13 11:28:33;;;;;;;7.03;2.80;;;;;;;11.85;100.00;100007.38;5090346;28;20112;-46
2024/02/13 11:31:14;;;;;;;8.43;3.33;;;;;;;11.76;100.00;99981.25;5101822;28;20075;-48
2024/02/13 11:34:04;;;;;;;7.28;3.28;;;;;;;12.02;100.00;99984.81;5110695;28;20182;-48
2024/02/13 11:36:34;;;;;;;7.10;3.67;;;;;;;11.98;100.00;99984.19;5109900;28;20067;-49
2024/02/13 11:39:06;;;;;;;6.63;3.35;;;;;;;11.92;100.00;99981.94;5110365;28;20082;-47
2024/02/13 11:41:35;;;;;;;6.30;3.30;;;;;;;12.00;100.00;99979.59;5093276;28;20071;-46
2024/02/13 11:44:07;;;;;;;7.53;3.50;;;;;;;12.02;100.00;99980.34;5106600;28;20086;-46